createdAt,value
2018-03-06T00:02:20.773Z,47.53
2018-03-06T00:04:46.564Z,45.03
2018-03-06T00:07:12.319Z,46.50
2018-03-06T00:09:38.102Z,46.10
2018-03-06T00:12:03.864Z,47.27
2018-03-06T00:14:29.622Z,44.67
2018-03-06T00:16:55.378Z,48.20
2018-03-06T00:19:21.158Z,40.63
2018-03-06T00:21:47.026Z,41.77
2018-03-06T00:24:12.789Z,46.13
2018-03-06T00:26:38.568Z,41.43
2018-03-06T00:29:04.342Z,48.00
2018-03-06T00:31:30.090Z,50.80
2018-03-06T00:33:55.839Z,44.70
2018-03-06T00:36:21.612Z,45.80
2018-03-06T00:38:47.377Z,42.70
2018-03-06T00:41:13.151Z,44.87
2018-03-06T00:43:38.913Z,50.23
2018-03-06T00:46:04.674Z,47.03
2018-03-06T00:48:30.435Z,54.17
2018-03-06T00:50:56.197Z,52.80
2018-03-06T00:53:21.960Z,57.37
2018-03-06T00:55:47.699Z,50.80
2018-03-06T00:58:13.441Z,53.33
2018-03-06T01:00:39.222Z,53.07
2018-03-06T01:03:04.956Z,56.23
2018-03-06T01:05:30.713Z,55.53
2018-03-06T01:07:56.471Z,57.27
2018-03-06T01:10:22.250Z,51.50
2018-03-06T01:12:48.016Z,53.60
2018-03-06T01:15:13.789Z,56.30
2018-03-06T01:17:39.534Z,58.00
2018-03-06T01:20:05.345Z,53.03
2018-03-06T01:22:31.105Z,60.67
2018-03-06T01:24:56.884Z,53.97
2018-03-06T01:27:22.642Z,55.00
2018-03-06T01:29:48.422Z,56.33
2018-03-06T01:32:14.171Z,63.50
2018-03-06T01:34:39.954Z,55.43
2018-03-06T01:37:05.713Z,60.17
2018-03-06T01:39:31.489Z,49.03
2018-03-06T01:41:57.250Z,43.90
2018-03-06T01:44:23.010Z,45.87
2018-03-06T01:46:48.776Z,51.77
2018-03-06T01:49:14.534Z,50.07
2018-03-06T01:51:52.698Z,42.23
2018-03-06T01:54:18.440Z,41.33
2018-03-06T01:56:44.230Z,44.67
2018-03-06T01:59:09.979Z,62.23
2018-03-06T02:01:35.785Z,55.53
2018-03-06T02:04:01.559Z,44.50
2018-03-06T02:06:27.309Z,56.47
2018-03-06T02:08:53.073Z,43.27
2018-03-06T02:11:18.887Z,46.43
2018-03-06T02:13:44.649Z,40.10
2018-03-06T02:16:10.440Z,49.10
2018-03-06T02:18:36.171Z,46.77
2018-03-06T02:21:01.948Z,45.83
2018-03-06T02:23:28.058Z,51.60
2018-03-06T02:25:53.809Z,67.82
2018-03-06T02:28:19.559Z,57.53
2018-03-06T02:30:45.332Z,49.17
2018-03-06T02:33:11.075Z,48.13
2018-03-06T02:35:37.085Z,54.53
2018-03-06T02:38:02.897Z,53.33
2018-03-06T02:40:30.495Z,48.47
2018-03-06T02:42:56.289Z,50.50
2018-03-06T02:45:22.050Z,48.30
2018-03-06T02:47:47.818Z,72.17
2018-03-06T02:50:13.576Z,78.80
2018-03-06T02:52:39.356Z,55.83
2018-03-06T02:55:05.431Z,43.00
2018-03-06T02:57:31.215Z,45.97
2018-03-06T02:59:56.981Z,50.80
2018-03-06T03:02:22.754Z,42.57
2018-03-06T03:04:48.506Z,40.83
2018-03-06T03:07:14.277Z,45.37
2018-03-06T03:09:40.036Z,43.10
2018-03-06T03:12:05.814Z,43.70
2018-03-06T03:14:31.580Z,62.40
2018-03-06T03:16:57.352Z,63.93
2018-03-06T03:19:23.123Z,53.40
2018-03-06T03:21:48.898Z,58.67
2018-03-06T03:24:14.674Z,57.83
2018-03-06T03:26:40.478Z,48.43
2018-03-06T03:29:06.245Z,45.90
2018-03-06T03:31:32.016Z,59.77
2018-03-06T03:33:57.806Z,45.93
2018-03-06T03:36:23.570Z,45.07
2018-03-06T03:38:49.341Z,48.57
2018-03-06T03:41:15.107Z,57.73
2018-03-06T03:43:40.881Z,55.97
2018-03-06T03:46:06.663Z,64.90
2018-03-06T03:48:32.427Z,62.23
2018-03-06T03:50:58.207Z,61.57
2018-03-06T03:53:23.992Z,67.20
2018-03-06T03:55:49.776Z,49.43
2018-03-06T03:58:15.562Z,53.23
2018-03-06T04:00:41.337Z,66.97
2018-03-06T04:03:07.106Z,55.53
2018-03-06T04:05:32.887Z,70.77
2018-03-06T04:07:58.658Z,67.13
2018-03-06T04:10:24.433Z,85.03
2018-03-06T04:12:50.194Z,70.77
2018-03-06T04:15:15.960Z,71.53
2018-03-06T04:17:41.714Z,67.90
2018-03-06T04:20:07.460Z,75.17
2018-03-06T04:22:33.222Z,63.23
2018-03-06T04:24:58.981Z,70.07
2018-03-06T04:27:24.734Z,70.87
2018-03-06T04:29:50.490Z,88.10
2018-03-06T04:32:16.246Z,75.13
2018-03-06T04:34:42.010Z,151.37
2018-03-06T04:37:07.770Z,99.63
2018-03-06T04:39:33.547Z,90.13
2018-03-06T04:41:59.306Z,128.50
2018-03-06T04:44:25.050Z,75.63
2018-03-06T04:46:50.824Z,86.63
2018-03-06T04:49:16.584Z,92.53
2018-03-06T04:51:42.341Z,90.80
2018-03-06T04:54:08.107Z,82.93
2018-03-06T04:56:33.886Z,90.33
2018-03-06T04:58:59.642Z,92.13
2018-03-06T05:01:25.377Z,82.30
2018-03-06T05:03:51.112Z,85.87
2018-03-06T05:06:16.871Z,86.00
2018-03-06T05:08:42.623Z,89.77
2018-03-06T05:11:08.435Z,90.73
2018-03-06T05:13:34.175Z,101.30
2018-03-06T05:15:59.927Z,93.83
2018-03-06T05:18:25.658Z,97.17
2018-03-06T05:20:51.389Z,108.00
2018-03-06T05:23:17.147Z,80.80
2018-03-06T05:25:42.878Z,83.17
2018-03-06T05:28:08.602Z,96.47
2018-03-06T05:30:34.329Z,93.27
2018-03-06T05:33:00.083Z,94.20
2018-03-06T05:35:25.847Z,91.27
2018-03-06T05:37:51.597Z,94.17
2018-03-06T05:40:17.338Z,90.17
2018-03-06T05:42:43.071Z,84.67
2018-03-06T05:45:08.815Z,93.70
2018-03-06T05:47:34.597Z,92.00
2018-03-06T05:50:00.347Z,87.77
2018-03-06T05:52:26.092Z,93.40
2018-03-06T05:54:51.825Z,84.73
2018-03-06T05:57:17.554Z,91.37
2018-03-06T05:59:43.301Z,84.97
2018-03-06T06:02:09.043Z,96.03
2018-03-06T06:04:34.810Z,95.03
2018-03-06T06:07:00.544Z,140.37
2018-03-06T06:09:26.290Z,106.27
2018-03-06T06:11:52.091Z,109.87
2018-03-06T06:14:17.778Z,103.63
2018-03-06T06:16:43.515Z,107.77
2018-03-06T06:19:09.286Z,127.00
2018-03-06T06:21:35.009Z,116.17
2018-03-06T06:24:00.764Z,102.23
2018-03-06T06:26:26.486Z,109.80
2018-03-06T06:28:52.234Z,121.93
2018-03-06T06:31:17.982Z,111.57
2018-03-06T06:33:43.746Z,106.40
2018-03-06T06:36:09.486Z,96.87
2018-03-06T06:38:35.224Z,102.17
2018-03-06T06:41:00.988Z,92.60
2018-03-06T06:43:26.714Z,95.93
2018-03-06T06:45:52.455Z,106.13
2018-03-06T06:48:18.202Z,111.70
2018-03-06T06:50:43.933Z,112.00
2018-03-06T06:53:09.693Z,108.77
2018-03-06T06:55:35.496Z,111.90
2018-03-06T06:58:01.221Z,101.60
2018-03-06T07:00:26.978Z,106.60
2018-03-06T07:02:52.701Z,103.83
2018-03-06T07:05:18.468Z,107.23
2018-03-06T07:07:44.198Z,110.30
2018-03-06T07:10:09.946Z,104.03
2018-03-06T07:12:35.702Z,103.77
2018-03-06T07:15:01.439Z,95.37
2018-03-06T07:17:27.160Z,101.43
2018-03-06T07:19:52.886Z,89.23
2018-03-06T07:22:18.629Z,91.47
2018-03-06T07:24:44.369Z,83.87
2018-03-06T07:27:10.108Z,86.03
2018-03-06T07:29:35.835Z,86.70
2018-03-06T07:32:01.579Z,87.10
2018-03-06T07:34:27.302Z,84.60
2018-03-06T07:36:53.047Z,82.73
2018-03-06T07:39:18.782Z,84.20
2018-03-06T07:41:44.558Z,77.43
2018-03-06T07:44:10.332Z,79.07
2018-03-06T07:46:36.025Z,77.37
2018-03-06T07:49:01.750Z,81.77
2018-03-06T07:51:27.501Z,80.17
2018-03-06T07:53:53.245Z,71.87
2018-03-06T07:56:18.982Z,77.40
2018-03-06T07:58:44.737Z,70.07
2018-03-06T08:01:10.474Z,71.03
2018-03-06T08:03:36.212Z,64.97
2018-03-06T08:06:01.946Z,71.57
2018-03-06T08:08:27.661Z,69.93
2018-03-06T08:10:53.381Z,64.33
2018-03-06T08:13:19.114Z,62.03
2018-03-06T08:15:44.861Z,58.90
2018-03-06T08:18:10.605Z,63.57
2018-03-06T08:20:36.335Z,54.80
2018-03-06T08:23:02.062Z,57.60
2018-03-06T08:25:27.790Z,62.73
2018-03-06T08:27:53.518Z,59.03
2018-03-06T08:30:19.251Z,59.37
2018-03-06T08:32:45.765Z,58.78
2018-03-06T08:35:11.486Z,62.00
2018-03-06T08:37:37.261Z,60.73
2018-03-06T08:40:02.969Z,61.40
2018-03-06T08:42:28.702Z,61.07
2018-03-06T08:44:54.430Z,61.50
2018-03-06T08:47:20.157Z,61.30
2018-03-06T08:49:45.886Z,62.83
2018-03-06T08:52:11.635Z,58.00
2018-03-06T08:54:37.347Z,62.17
2018-03-06T08:57:03.068Z,54.97
2018-03-06T08:59:28.806Z,55.87
2018-03-06T09:01:54.544Z,56.10
2018-03-06T09:04:20.294Z,60.20
2018-03-06T09:06:46.026Z,59.23
2018-03-06T09:09:11.791Z,59.90
2018-03-06T09:11:37.560Z,57.30
2018-03-06T09:14:03.302Z,54.13
2018-03-06T09:16:29.029Z,59.07
2018-03-06T09:18:54.769Z,58.37
2018-03-06T09:21:20.501Z,60.60
2018-03-06T09:23:46.247Z,57.77
2018-03-06T09:26:11.975Z,58.50
2018-03-06T09:28:37.714Z,59.57
2018-03-06T09:31:03.454Z,57.57
2018-03-06T09:33:29.255Z,57.93
2018-03-06T09:35:54.981Z,55.13
2018-03-06T09:38:20.735Z,57.77
2018-03-06T09:40:46.467Z,57.73
2018-03-06T09:43:12.182Z,57.50
2018-03-06T09:45:37.928Z,56.40
2018-03-06T09:48:03.670Z,56.23
2018-03-06T09:50:29.394Z,54.97
2018-03-06T09:52:55.154Z,57.53
2018-03-06T09:55:20.901Z,55.90
2018-03-06T09:57:46.634Z,58.50
2018-03-06T10:00:12.355Z,53.33
2018-03-06T10:02:38.066Z,57.53
2018-03-06T10:05:03.799Z,54.63
2018-03-06T10:07:29.590Z,58.43
2018-03-06T10:09:55.375Z,56.23
2018-03-06T10:12:21.150Z,55.37
2018-03-06T10:14:46.911Z,55.30
2018-03-06T10:17:12.665Z,53.60
2018-03-06T10:19:38.431Z,51.63
2018-03-06T10:22:04.198Z,53.80
2018-03-06T10:24:30.053Z,56.03
2018-03-06T10:26:55.819Z,56.07
2018-03-06T10:29:21.611Z,57.90
2018-03-06T10:31:47.383Z,49.57
2018-03-06T10:34:13.167Z,60.03
2018-03-06T10:36:38.943Z,60.33
2018-03-06T10:39:04.758Z,57.43
2018-03-06T10:41:30.519Z,55.70
2018-03-06T10:43:56.283Z,57.43
2018-03-06T10:46:22.047Z,56.37
2018-03-06T10:48:47.816Z,57.40
2018-03-06T10:51:13.607Z,58.03
2018-03-06T10:53:39.362Z,57.90
2018-03-06T10:56:05.123Z,53.87
2018-03-06T10:58:30.901Z,52.60
2018-03-06T11:00:56.671Z,49.50
2018-03-06T11:03:22.425Z,55.13
2018-03-06T11:05:48.157Z,48.33
2018-03-06T11:08:13.935Z,49.77
2018-03-06T11:10:39.606Z,49.43
2018-03-06T11:13:05.333Z,49.57
2018-03-06T11:15:31.050Z,48.37
2018-03-06T11:17:56.765Z,49.73
2018-03-06T11:20:22.485Z,50.30
2018-03-06T11:22:48.210Z,52.67
2018-03-06T11:25:14.226Z,51.00
2018-03-06T11:27:39.966Z,53.07
2018-03-06T11:30:05.684Z,50.27
2018-03-06T11:32:31.406Z,51.07
2018-03-06T11:34:57.170Z,52.87
2018-03-06T11:37:22.890Z,51.50
2018-03-06T11:39:48.621Z,50.50
2018-03-06T11:42:14.341Z,49.10
2018-03-06T11:44:40.062Z,49.63
2018-03-06T11:47:05.777Z,50.27
2018-03-06T11:49:31.493Z,49.80
2018-03-06T11:51:57.223Z,51.93
2018-03-06T11:54:22.934Z,52.60
2018-03-06T11:56:48.669Z,51.53
2018-03-06T11:59:14.381Z,52.73
2018-03-06T12:01:40.114Z,50.37
2018-03-06T12:04:05.817Z,50.93
2018-03-06T12:06:31.549Z,58.97
2018-03-06T12:08:57.271Z,54.37
2018-03-06T12:11:22.997Z,52.80
2018-03-06T12:13:48.718Z,50.40
2018-03-06T12:16:14.455Z,53.07
2018-03-06T12:18:40.181Z,47.73
2018-03-06T12:21:05.909Z,49.97
2018-03-06T12:23:31.637Z,50.27
2018-03-06T12:25:57.350Z,54.43
2018-03-06T12:28:23.087Z,57.67
2018-03-06T12:30:48.805Z,52.00
2018-03-06T12:33:14.526Z,50.23
2018-03-06T12:35:40.239Z,48.93
2018-03-06T12:38:05.964Z,48.33
2018-03-06T12:40:31.694Z,50.77
2018-03-06T12:42:57.444Z,48.47
2018-03-06T12:45:23.145Z,46.23
2018-03-06T12:47:48.871Z,46.80
2018-03-06T12:50:14.591Z,47.23
2018-03-06T12:52:40.309Z,48.93
2018-03-06T12:55:06.048Z,50.17
2018-03-06T12:57:31.793Z,52.47
2018-03-06T12:59:57.519Z,52.10
2018-03-06T13:02:23.251Z,52.37
2018-03-06T13:04:48.970Z,53.07
2018-03-06T13:07:14.695Z,52.63
2018-03-06T13:09:40.446Z,52.00
2018-03-06T13:12:06.169Z,50.63
2018-03-06T13:14:31.910Z,56.57
2018-03-06T13:16:57.678Z,48.93
2018-03-06T13:19:23.401Z,47.30
2018-03-06T13:21:49.125Z,51.87
2018-03-06T13:24:14.838Z,52.77
2018-03-06T13:26:40.549Z,51.33
2018-03-06T13:29:06.298Z,52.90
2018-03-06T13:31:32.026Z,54.10
2018-03-06T13:33:57.776Z,52.40
2018-03-06T13:36:23.474Z,53.57
2018-03-06T13:38:49.264Z,54.37
2018-03-06T13:41:14.952Z,51.03
2018-03-06T13:43:40.709Z,51.83
2018-03-06T13:46:06.426Z,56.73
2018-03-06T13:48:32.158Z,50.10
2018-03-06T13:50:57.872Z,49.83
2018-03-06T13:53:23.603Z,51.87
2018-03-06T13:55:49.334Z,52.27
2018-03-06T13:58:15.057Z,51.53
2018-03-06T14:00:40.788Z,51.73
2018-03-06T14:03:06.503Z,52.13
2018-03-06T14:05:32.237Z,53.93
2018-03-06T14:07:57.963Z,49.80
2018-03-06T14:10:23.730Z,54.83
2018-03-06T14:12:49.465Z,53.80
2018-03-06T14:15:15.201Z,59.10
2018-03-06T14:17:40.955Z,56.23
2018-03-06T14:20:06.671Z,58.47
2018-03-06T14:22:32.389Z,57.50
2018-03-06T14:24:58.125Z,55.63
2018-03-06T14:27:23.858Z,59.07
2018-03-06T14:29:49.611Z,57.80
2018-03-06T14:32:15.389Z,55.90
2018-03-06T14:34:41.074Z,56.13
2018-03-06T14:37:06.790Z,57.33
2018-03-06T14:39:32.525Z,61.27
2018-03-06T14:41:58.246Z,65.67
2018-03-06T14:44:23.962Z,60.67
2018-03-06T14:46:49.720Z,59.50
2018-03-06T14:49:15.463Z,60.73
2018-03-06T14:51:41.190Z,61.23
2018-03-06T14:54:06.930Z,62.57
2018-03-06T14:56:32.658Z,60.30
2018-03-06T14:58:58.368Z,60.20
2018-03-06T15:01:24.094Z,56.87
2018-03-06T15:03:49.821Z,60.37
2018-03-06T15:06:15.551Z,60.93
2018-03-06T15:08:41.268Z,61.40
2018-03-06T15:11:06.998Z,60.10
2018-03-06T15:13:32.727Z,62.13
2018-03-06T15:15:58.440Z,62.27
2018-03-06T15:18:24.155Z,62.17
2018-03-06T15:20:49.889Z,60.10
2018-03-06T15:23:15.609Z,66.13
2018-03-06T15:25:41.316Z,64.10
2018-03-06T15:28:07.055Z,65.47
2018-03-06T15:30:32.782Z,62.23
2018-03-06T15:32:58.502Z,65.63
2018-03-06T15:35:24.213Z,67.90
2018-03-06T15:37:49.967Z,62.70
2018-03-06T15:40:15.705Z,66.33
2018-03-06T15:42:41.455Z,72.53
2018-03-06T15:45:07.195Z,68.03
2018-03-06T15:47:32.941Z,71.27
2018-03-06T15:49:58.645Z,68.63
2018-03-06T15:52:24.390Z,73.47
2018-03-06T15:54:50.125Z,70.80
2018-03-06T15:57:15.861Z,79.63
2018-03-06T15:59:41.574Z,85.33
2018-03-06T16:02:07.299Z,71.57
2018-03-06T16:04:33.017Z,70.80
2018-03-06T16:06:58.796Z,69.00
2018-03-06T16:09:24.493Z,73.60
2018-03-06T16:11:50.234Z,71.43
2018-03-06T16:14:15.974Z,77.00
2018-03-06T16:16:41.718Z,77.93
2018-03-06T16:19:07.446Z,75.93
2018-03-06T16:21:33.174Z,81.43
2018-03-06T16:23:58.902Z,76.73
2018-03-06T16:26:24.627Z,75.57
2018-03-06T16:28:50.366Z,80.00
2018-03-06T16:31:16.080Z,91.63
2018-03-06T16:33:41.824Z,82.70
2018-03-06T16:36:07.543Z,80.00
2018-03-06T16:38:33.316Z,85.80
2018-03-06T16:40:59.061Z,81.50
2018-03-06T16:43:24.836Z,81.03
2018-03-06T16:45:50.582Z,81.73
2018-03-06T16:48:16.332Z,79.87
2018-03-06T16:50:42.057Z,84.17
2018-03-06T16:53:07.792Z,76.93
2018-03-06T16:55:33.537Z,82.00
2018-03-06T16:57:59.264Z,81.03
2018-03-06T17:00:25.069Z,78.00
2018-03-06T17:02:50.823Z,79.93
2018-03-06T17:05:16.570Z,79.23
2018-03-06T17:07:42.340Z,85.03
2018-03-06T17:10:08.112Z,88.23
2018-03-06T17:12:33.825Z,81.43
2018-03-06T17:14:59.559Z,84.60
2018-03-06T17:17:25.286Z,89.27
2018-03-06T17:19:51.101Z,86.93
2018-03-06T17:22:16.810Z,84.00
2018-03-06T17:24:42.542Z,94.47
2018-03-06T17:27:08.262Z,84.37
2018-03-06T17:29:34.003Z,86.00
2018-03-06T17:31:59.725Z,81.47
2018-03-06T17:34:25.473Z,90.73
2018-03-06T17:36:51.182Z,87.60
2018-03-06T17:39:16.928Z,94.53
2018-03-06T17:41:42.691Z,97.33
2018-03-06T17:44:08.429Z,99.03
2018-03-06T17:46:34.166Z,109.27
2018-03-06T17:48:59.888Z,120.53
2018-03-06T17:51:25.631Z,120.63
2018-03-06T17:53:51.346Z,105.87
2018-03-06T17:56:17.083Z,98.73
2018-03-06T17:58:42.910Z,104.70
2018-03-06T18:01:08.659Z,97.17
2018-03-06T18:03:34.399Z,97.43
2018-03-06T18:06:00.137Z,88.50
2018-03-06T18:08:25.866Z,93.93
2018-03-06T18:10:51.601Z,91.87
2018-03-06T18:13:17.334Z,103.97
2018-03-06T18:15:43.050Z,368.63
2018-03-06T18:18:08.775Z,111.90
2018-03-06T18:20:34.499Z,87.50
2018-03-06T18:23:00.235Z,96.83
2018-03-06T18:25:25.955Z,91.90
2018-03-06T18:27:51.685Z,93.53
2018-03-06T18:30:17.425Z,94.27
2018-03-06T18:32:43.158Z,91.60
2018-03-06T18:35:08.865Z,92.47
2018-03-06T18:37:34.639Z,89.70
2018-03-06T18:40:00.366Z,97.93
2018-03-06T18:42:26.102Z,93.80
2018-03-06T18:44:51.837Z,95.83
2018-03-06T18:47:17.580Z,99.07
2018-03-06T18:49:55.686Z,99.20
2018-03-06T18:52:21.414Z,100.28
2018-03-06T18:54:47.142Z,98.40
2018-03-06T18:57:12.909Z,93.40
2018-03-06T18:59:38.648Z,91.33
2018-03-06T19:02:17.467Z,98.60
2018-03-06T19:04:55.687Z,92.40
2018-03-06T19:07:21.421Z,97.32
2018-03-06T19:09:47.154Z,95.67
2018-03-06T19:12:12.893Z,92.70
2018-03-06T19:14:38.631Z,91.60
2018-03-06T19:17:04.365Z,88.60
2018-03-06T19:19:30.106Z,93.23
2018-03-06T19:21:55.844Z,95.33
2018-03-06T19:24:21.606Z,95.40
2018-03-06T19:26:47.347Z,98.00
2018-03-06T19:29:13.103Z,98.57
2018-03-06T19:31:38.870Z,101.83
2018-03-06T19:34:04.647Z,107.67
2018-03-06T19:36:30.378Z,103.50
2018-03-06T19:38:56.126Z,103.27
2018-03-06T19:41:21.861Z,98.07
2018-03-06T19:43:47.606Z,98.60
2018-03-06T19:46:13.334Z,99.13
2018-03-06T19:48:39.075Z,100.33
2018-03-06T19:51:04.812Z,97.17
2018-03-06T19:53:30.605Z,97.43
2018-03-06T19:55:56.329Z,99.37
2018-03-06T19:58:22.077Z,96.90
2018-03-06T20:00:47.819Z,95.60
2018-03-06T20:03:13.561Z,96.73
2018-03-06T20:05:39.298Z,91.73
2018-03-06T20:08:05.122Z,102.07
2018-03-06T20:10:30.938Z,99.67
2018-03-06T20:12:56.689Z,96.07
2018-03-06T20:15:22.443Z,99.00
2018-03-06T20:17:48.189Z,98.63
2018-03-06T20:20:14.007Z,102.27
2018-03-06T20:22:39.725Z,99.13
2018-03-06T20:25:11.519Z,101.57
2018-03-06T20:27:37.218Z,97.78
2018-03-06T20:30:02.965Z,104.33
2018-03-06T20:32:34.937Z,107.50
2018-03-06T20:35:00.681Z,106.35
2018-03-06T20:37:26.428Z,108.23
2018-03-06T20:39:58.292Z,107.80
2018-03-06T20:42:24.018Z,107.75
2018-03-06T20:44:49.742Z,105.87
2018-03-06T20:47:21.506Z,103.80
2018-03-06T20:49:47.261Z,103.40
2018-03-06T20:52:12.986Z,110.93
2018-03-06T20:54:45.787Z,111.27
2018-03-06T20:57:11.510Z,102.22
2018-03-06T20:59:37.242Z,108.33
2018-03-06T21:02:02.963Z,103.77
2018-03-06T21:04:28.695Z,105.57
2018-03-06T21:06:54.434Z,109.47
2018-03-06T21:09:20.153Z,108.03
2018-03-06T21:11:46.041Z,105.63
2018-03-06T21:14:11.765Z,110.53
2018-03-06T21:16:37.506Z,106.67
2018-03-06T21:19:03.232Z,116.33
2018-03-06T21:21:28.978Z,116.13
2018-03-06T21:23:54.706Z,120.63
2018-03-06T21:26:20.434Z,116.50
2018-03-06T21:28:46.163Z,118.57
2018-03-06T21:31:11.895Z,113.77
2018-03-06T21:33:37.622Z,119.07
2018-03-06T21:36:03.358Z,113.67
2018-03-06T21:38:29.078Z,113.83
2018-03-06T21:40:54.806Z,119.47
2018-03-06T21:43:20.518Z,120.27
2018-03-06T21:45:46.250Z,116.43
2018-03-06T21:48:11.970Z,117.40
2018-03-06T21:50:37.702Z,116.77
2018-03-06T21:53:03.437Z,119.63
2018-03-06T21:55:29.173Z,121.47
2018-03-06T21:57:54.911Z,123.23
2018-03-06T22:00:20.638Z,123.07
2018-03-06T22:02:46.362Z,122.87
2018-03-06T22:05:12.077Z,130.13
2018-03-06T22:07:37.805Z,124.37
2018-03-06T22:10:03.534Z,117.93
2018-03-06T22:12:29.358Z,119.93
2018-03-06T22:14:55.087Z,123.20
2018-03-06T22:17:20.819Z,122.87
2018-03-06T22:19:46.594Z,121.13
2018-03-06T22:22:12.348Z,126.80
2018-03-06T22:24:38.086Z,130.73
2018-03-06T22:27:03.823Z,127.20
2018-03-06T22:29:29.550Z,130.77
2018-03-06T22:31:55.298Z,128.30
2018-03-06T22:34:21.038Z,127.67
2018-03-06T22:36:46.765Z,123.70
2018-03-06T22:39:12.511Z,131.73
2018-03-06T22:41:38.254Z,127.73
2018-03-06T22:44:03.994Z,135.50
2018-03-06T22:46:29.731Z,132.03
2018-03-06T22:48:55.487Z,132.40
2018-03-06T22:51:21.214Z,140.47
2018-03-06T22:53:46.949Z,132.33
2018-03-06T22:56:12.685Z,136.97
2018-03-06T22:58:38.422Z,138.57
2018-03-06T23:01:04.157Z,134.20
2018-03-06T23:03:29.898Z,132.30
2018-03-06T23:05:55.639Z,128.83
2018-03-06T23:08:21.374Z,135.97
2018-03-06T23:10:47.106Z,138.17
2018-03-06T23:13:12.837Z,138.77
2018-03-06T23:15:38.553Z,134.63
2018-03-06T23:18:04.291Z,135.00
2018-03-06T23:20:30.010Z,131.17
2018-03-06T23:22:55.745Z,134.57
2018-03-06T23:25:21.468Z,136.77
2018-03-06T23:27:47.194Z,138.57
2018-03-06T23:30:12.913Z,135.57
2018-03-06T23:32:38.646Z,139.73
2018-03-06T23:35:04.398Z,135.03
2018-03-06T23:37:30.117Z,137.27
2018-03-06T23:39:55.854Z,140.27
2018-03-06T23:42:21.584Z,130.80
2018-03-06T23:44:47.314Z,142.40
2018-03-06T23:47:13.053Z,144.93
2018-03-06T23:49:38.794Z,138.23
2018-03-06T23:52:04.533Z,145.97
2018-03-06T23:54:30.262Z,146.83
2018-03-06T23:56:55.990Z,144.90
2018-03-06T23:59:21.733Z,141.93
